Time;durP1;ratioP1;P1;durP2;ratioP2;P2;SDS_P1;SDS_P2;PMS_P1;PMS_P2;Temp;Humidity;BMP_temperature;BMP_pressure;BME280_temperature;BME280_humidity;BME280_pressure;Samples;Min_cycle;Max_cycle;Signal;HPM_P1;HPM_P2
2022/01/22 00:00:04;;;;;;;7.43;2.10;;;;;;;;;;4989468;28;20251;-32
2022/01/22 00:02:35;;;;;;;5.90;1.80;;;;;;;;;;4985692;28;20251;-33
2022/01/22 00:05:02;;;;;;;7.95;1.67;;;;;;;;;;4988718;28;20263;-31
2022/01/22 00:07:29;;;;;;;6.50;2.15;;;;;;;;;;4987603;28;20239;-35
2022/01/22 00:10:03;;;;;;;7.57;2.38;;;;;;;;;;4989276;28;20239;-31
2022/01/22 00:12:41;;;;;;;4.50;1.52;;;;;;;;;;4987544;28;21034;-31
2022/01/22 00:15:09;;;;;;;8.52;2.20;;;;;;;;;;4987315;28;20232;-30
2022/01/22 00:17:36;;;;;;;10.98;2.45;;;;;;;;;;4990668;28;20432;-30
2022/01/22 00:20:03;;;;;;;7.07;2.20;;;;;;;;;;4992703;28;20979;-30
2022/01/22 00:22:32;;;;;;;7.97;2.10;;;;;;;;;;4992358;28;20711;-30
2022/01/22 00:25:01;;;;;;;5.88;1.92;;;;;;;;;;4988783;28;20742;-30
2022/01/22 00:27:28;;;;;;;16.75;2.78;;;;;;;;;;4980242;28;20416;-30
2022/01/22 00:29:55;;;;;;;10.07;2.05;;;;;;;;;;4987373;28;20239;-31
2022/01/22 00:32:22;;;;;;;10.10;2.80;;;;;;;;;;4983702;28;20233;-34
2022/01/22 00:34:49;;;;;;;11.38;2.22;;;;;;;;;;4977013;28;20237;-29
2022/01/22 00:37:16;;;;;;;11.93;2.28;;;;;;;;;;4984457;28;20235;-30
2022/01/22 00:39:43;;;;;;;14.50;1.75;;;;;;;;;;4991446;28;20204;-31
2022/01/22 00:42:13;;;;;;;10.75;2.00;;;;;;;;;;4994445;28;20239;-30
2022/01/22 00:44:40;;;;;;;6.05;2.22;;;;;;;;;;4994259;28;20228;-28
2022/01/22 00:47:07;;;;;;;14.70;2.45;;;;;;;;;;5001082;28;20236;-29
2022/01/22 00:49:34;;;;;;;7.50;2.30;;;;;;;;;;4993948;28;20228;-30
2022/01/22 00:52:01;;;;;;;14.25;2.28;;;;;;;;;;4994495;28;20227;-29
2022/01/22 00:54:28;;;;;;;6.88;2.00;;;;;;;;;;4994285;28;20224;-29
2022/01/22 00:56:55;;;;;;;9.88;2.30;;;;;;;;;;4993843;28;20232;-30
2022/01/22 00:59:22;;;;;;;9.10;2.47;;;;;;;;;;4993333;28;20234;-30
2022/01/22 01:01:48;;;;;;;6.25;2.03;;;;;;;;;;4994923;28;20227;-29
2022/01/22 01:04:16;;;;;;;8.32;2.03;;;;;;;;;;4993372;28;20228;-29
2022/01/22 01:06:43;;;;;;;9.00;1.90;;;;;;;;;;4994362;28;20239;-29
2022/01/22 01:09:10;;;;;;;8.75;2.00;;;;;;;;;;4994141;28;20238;-29
2022/01/22 01:11:43;;;;;;;7.70;2.10;;;;;;;;;;4992676;28;20714;-31
2022/01/22 01:14:15;;;;;;;9.48;2.45;;;;;;;;;;4992373;28;20231;-30
2022/01/22 01:16:44;;;;;;;8.60;1.90;;;;;;;;;;4993604;28;20236;-32
2022/01/22 01:33:06;;;;;;;7.97;1.80;;;;;;;;;;4994528;28;20306;-28
2022/01/22 01:35:37;;;;;;;8.18;1.85;;;;;;;;;;4993672;28;20728;-30
2022/01/22 01:38:04;;;;;;;5.13;1.55;;;;;;;;;;4993384;28;20240;-28
2022/01/22 01:40:33;;;;;;;4.47;1.48;;;;;;;;;;4993225;28;20282;-29
2022/01/22 01:43:13;;;;;;;6.10;1.60;;;;;;;;;;4993654;28;20745;-35
2022/01/22 01:45:41;;;;;;;6.22;1.70;;;;;;;;;;4994421;28;20715;-28
2022/01/22 01:48:14;;;;;;;7.15;1.88;;;;;;;;;;4993441;28;20251;-30
2022/01/22 01:50:42;;;;;;;4.80;1.95;;;;;;;;;;4993599;28;20235;-32
2022/01/22 01:55:50;;;;;;;9.00;1.80;;;;;;;;;;4993025;28;20232;-29
2022/01/22 01:58:17;;;;;;;8.48;1.67;;;;;;;;;;4993210;28;20243;-30
2022/01/22 02:00:44;;;;;;;4.60;1.73;;;;;;;;;;4993741;28;20215;-30
2022/01/22 02:03:12;;;;;;;6.25;1.80;;;;;;;;;;4992839;28;20827;-28
2022/01/22 02:05:40;;;;;;;4.60;1.35;;;;;;;;;;4992271;28;20291;-29
2022/01/22 02:08:07;;;;;;;4.30;1.50;;;;;;;;;;4993407;28;20232;-29
2022/01/22 02:10:38;;;;;;;5.40;1.60;;;;;;;;;;4993231;28;20982;-31
2022/01/22 02:24:21;;;;;;;6.38;1.95;;;;;;;;;;4975874;28;20239;-28
2022/01/22 02:26:48;;;;;;;6.05;1.52;;;;;;;;;;4996556;28;20765;-29
2022/01/22 02:29:15;;;;;;;5.68;1.67;;;;;;;;;;4995312;28;20247;-32
2022/01/22 02:31:57;;;;;;;5.45;1.50;;;;;;;;;;5006331;28;20336;-29
2022/01/22 02:34:44;;;;;;;4.53;1.40;;;;;;;;;;4996063;28;20228;-29
2022/01/22 02:37:15;;;;;;;4.85;1.63;;;;;;;;;;4996357;28;20977;-28
2022/01/22 02:39:59;;;;;;;4.72;1.52;;;;;;;;;;4995533;28;20241;-34
2022/01/22 02:42:30;;;;;;;3.75;1.33;;;;;;;;;;4985489;28;20232;-30
2022/01/22 02:44:57;;;;;;;5.82;1.80;;;;;;;;;;4996523;28;20239;-29
2022/01/22 02:47:24;;;;;;;6.57;1.52;;;;;;;;;;5013831;28;20235;-30
2022/01/22 02:49:51;;;;;;;6.25;1.30;;;;;;;;;;4995410;28;20240;-29
2022/01/22 02:52:19;;;;;;;7.95;1.52;;;;;;;;;;4996416;28;20252;-28
2022/01/22 02:54:47;;;;;;;6.03;1.50;;;;;;;;;;4995851;28;20228;-33
2022/01/22 02:57:14;;;;;;;4.55;1.30;;;;;;;;;;4996464;28;20236;-32
2022/01/22 02:59:41;;;;;;;7.43;1.55;;;;;;;;;;4996468;28;20232;-30
2022/01/22 03:02:08;;;;;;;4.80;1.20;;;;;;;;;;4995129;28;20240;-30
2022/01/22 03:04:35;;;;;;;7.70;2.03;;;;;;;;;;4995728;28;20232;-28
2022/01/22 03:07:02;;;;;;;6.07;1.15;;;;;;;;;;4995786;28;20224;-30
2022/01/22 03:09:32;;;;;;;7.13;1.58;;;;;;;;;;4995736;28;20228;-29
2022/01/22 03:12:19;;;;;;;6.55;1.88;;;;;;;;;;4995503;28;20240;-32
2022/01/22 03:22:41;;;;;;;5.28;1.42;;;;;;;;;;4994818;28;20247;-30
2022/01/22 03:27:54;;;;;;;5.15;1.40;;;;;;;;;;4995376;28;20231;-31
2022/01/22 03:30:21;;;;;;;6.15;1.55;;;;;;;;;;4997116;28;21041;-33
2022/01/22 03:32:51;;;;;;;5.43;1.23;;;;;;;;;;4994842;28;20939;-33
2022/01/22 03:37:45;;;;;;;6.28;1.40;;;;;;;;;;4995522;28;21089;-29
2022/01/22 03:40:12;;;;;;;8.65;1.60;;;;;;;;;;4995202;28;20236;-34
2022/01/22 03:42:39;;;;;;;3.78;1.23;;;;;;;;;;4995072;28;20254;-28
2022/01/22 03:45:06;;;;;;;5.32;1.27;;;;;;;;;;4990511;28;20233;-30
2022/01/22 03:47:33;;;;;;;4.65;1.63;;;;;;;;;;5014518;28;20239;-30
2022/01/22 03:50:00;;;;;;;4.57;1.10;;;;;;;;;;5005642;28;20240;-28
2022/01/22 03:52:27;;;;;;;4.65;1.13;;;;;;;;;;4995222;28;20224;-29
2022/01/22 03:54:54;;;;;;;5.07;1.50;;;;;;;;;;4994902;28;20237;-29
2022/01/22 03:57:24;;;;;;;3.58;1.17;;;;;;;;;;4995077;28;20239;-30
2022/01/22 03:59:52;;;;;;;7.93;1.70;;;;;;;;;;4994987;28;20238;-30
2022/01/22 04:05:06;;;;;;;4.03;1.35;;;;;;;;;;4995106;28;20994;-28
2022/01/22 04:10:20;;;;;;;6.78;1.50;;;;;;;;;;4994774;28;20254;-33
2022/01/22 04:12:54;;;;;;;3.45;0.88;;;;;;;;;;4995176;28;21051;-29
2022/01/22 04:15:25;;;;;;;4.05;1.10;;;;;;;;;;4997356;28;20232;-28
2022/01/22 04:28:54;;;;;;;3.45;1.25;;;;;;;;;;4994028;28;20243;-29
2022/01/22 04:31:21;;;;;;;4.43;1.10;;;;;;;;;;5004953;28;20240;-31
2022/01/22 04:33:48;;;;;;;4.28;1.10;;;;;;;;;;5014072;28;20238;-27
2022/01/22 04:36:15;;;;;;;3.92;0.90;;;;;;;;;;4997586;28;20232;-28
2022/01/22 04:38:42;;;;;;;4.28;1.25;;;;;;;;;;4993301;28;20239;-29
2022/01/22 04:41:09;;;;;;;3.63;1.05;;;;;;;;;;4993996;28;20232;-27
2022/01/22 04:43:38;;;;;;;5.82;1.05;;;;;;;;;;4993786;28;20243;-30
2022/01/22 04:46:22;;;;;;;4.47;1.42;;;;;;;;;;5002937;28;20281;-27
2022/01/22 04:56:47;;;;;;;3.63;1.13;;;;;;;;;;4975243;28;20255;-28
2022/01/22 04:59:14;;;;;;;2.28;0.88;;;;;;;;;;4974553;28;20244;-28
2022/01/22 05:01:41;;;;;;;5.10;1.08;;;;;;;;;;4998511;28;20220;-29
2022/01/22 05:04:08;;;;;;;2.45;0.88;;;;;;;;;;4994214;28;20291;-28
2022/01/22 05:06:35;;;;;;;3.15;1.00;;;;;;;;;;4994106;28;20956;-29
2022/01/22 05:09:02;;;;;;;4.00;1.17;;;;;;;;;;4994339;28;20861;-29
2022/01/22 05:11:29;;;;;;;4.53;1.10;;;;;;;;;;4994192;28;20236;-32
2022/01/22 05:13:56;;;;;;;3.53;1.17;;;;;;;;;;4993364;28;20229;-29
2022/01/22 05:16:23;;;;;;;7.75;0.90;;;;;;;;;;5002159;28;20227;-29
2022/01/22 05:18:57;;;;;;;3.42;0.80;;;;;;;;;;5013919;28;21064;-29
2022/01/22 05:21:25;;;;;;;3.58;1.10;;;;;;;;;;4996712;28;20242;-28
2022/01/22 05:23:54;;;;;;;2.45;0.80;;;;;;;;;;4993101;28;20236;-32
2022/01/22 05:26:43;;;;;;;3.70;1.23;;;;;;;;;;4993249;28;20228;-30
2022/01/22 05:29:25;;;;;;;3.47;0.88;;;;;;;;;;4993967;28;20234;-29
2022/01/22 05:37:25;;;;;;;2.58;0.82;;;;;;;;;;4994122;28;20218;-29
2022/01/22 05:39:52;;;;;;;2.97;1.00;;;;;;;;;;4994058;28;20228;-28
2022/01/22 05:42:19;;;;;;;3.10;0.82;;;;;;;;;;4993597;28;20234;-29
2022/01/22 05:44:46;;;;;;;1.73;0.57;;;;;;;;;;4993630;28;20228;-29
2022/01/22 05:47:20;;;;;;;2.78;0.70;;;;;;;;;;4992773;28;20584;-31
2022/01/22 05:49:47;;;;;;;3.75;0.80;;;;;;;;;;4994984;28;20235;-29
2022/01/22 05:52:19;;;;;;;1.60;0.70;;;;;;;;;;4996605;28;20232;-29
2022/01/22 06:00:14;;;;;;;3.38;0.60;;;;;;;;;;4997867;28;20243;-30
2022/01/22 06:02:41;;;;;;;1.90;0.65;;;;;;;;;;4997499;28;20239;-28
2022/01/22 06:05:09;;;;;;;2.67;0.80;;;;;;;;;;4995787;28;20219;-28
2022/01/22 06:07:35;;;;;;;2.50;0.65;;;;;;;;;;4996656;28;20242;-29
2022/01/22 06:10:15;;;;;;;1.95;0.60;;;;;;;;;;4996740;28;20236;-29
2022/01/22 06:15:18;;;;;;;4.25;0.70;;;;;;;;;;4998350;28;20232;-29
2022/01/22 06:17:45;;;;;;;2.28;0.80;;;;;;;;;;5002582;28;20232;-30
2022/01/22 06:20:13;;;;;;;1.67;0.50;;;;;;;;;;4996142;28;20231;-29
2022/01/22 06:22:40;;;;;;;3.15;0.77;;;;;;;;;;4996429;28;20734;-30
2022/01/22 06:25:06;;;;;;;1.05;0.50;;;;;;;;;;4996248;28;20239;-29
2022/01/22 06:27:33;;;;;;;2.10;0.80;;;;;;;;;;4996489;28;20224;-29
2022/01/22 06:30:00;;;;;;;1.70;0.60;;;;;;;;;;4995495;28;20232;-29
2022/01/22 06:32:28;;;;;;;3.53;0.93;;;;;;;;;;5016475;28;20245;-32
2022/01/22 06:34:55;;;;;;;2.80;0.60;;;;;;;;;;5010528;28;20232;-29
2022/01/22 06:37:22;;;;;;;1.40;0.60;;;;;;;;;;4996358;28;20232;-29
2022/01/22 06:42:34;;;;;;;3.08;0.80;;;;;;;;;;4995767;28;20637;-29
2022/01/22 06:45:01;;;;;;;2.35;0.73;;;;;;;;;;4996064;28;21046;-28
2022/01/22 06:47:29;;;;;;;1.48;0.55;;;;;;;;;;4996143;28;20344;-31
2022/01/22 06:49:56;;;;;;;2.15;0.70;;;;;;;;;;4991155;28;20284;-30
2022/01/22 06:52:23;;;;;;;1.63;0.52;;;;;;;;;;4981765;28;20242;-30
2022/01/22 06:54:50;;;;;;;2.17;0.70;;;;;;;;;;4984756;28;20235;-29
2022/01/22 06:57:16;;;;;;;1.80;0.47;;;;;;;;;;4985053;28;20235;-28
2022/01/22 06:59:44;;;;;;;1.50;0.50;;;;;;;;;;4994748;28;20261;-29
2022/01/22 07:02:14;;;;;;;2.17;0.63;;;;;;;;;;4994138;28;21069;-29
2022/01/22 07:04:41;;;;;;;1.85;0.52;;;;;;;;;;4998505;28;20235;-30
2022/01/22 07:07:09;;;;;;;0.80;0.40;;;;;;;;;;4996092;28;20239;-31
2022/01/22 07:09:36;;;;;;;0.85;0.30;;;;;;;;;;4995942;28;20734;-30
2022/01/22 07:12:03;;;;;;;1.85;0.60;;;;;;;;;;4996044;28;20242;-30
2022/01/22 07:14:30;;;;;;;1.92;0.70;;;;;;;;;;4995326;28;20228;-30
2022/01/22 07:16:57;;;;;;;3.00;0.50;;;;;;;;;;5011894;28;20246;-32
2022/01/22 07:19:24;;;;;;;1.48;0.50;;;;;;;;;;5005805;28;20283;-28
2022/01/22 07:22:09;;;;;;;7.13;0.70;;;;;;;;;;4995967;28;20216;-32
2022/01/22 07:24:41;;;;;;;4.03;0.63;;;;;;;;;;4995496;28;20232;-31
2022/01/22 07:27:08;;;;;;;4.32;0.90;;;;;;;;;;4996573;28;20319;-29
2022/01/22 07:29:35;;;;;;;1.13;0.40;;;;;;;;;;4996030;28;20227;-31
2022/01/22 07:32:04;;;;;;;4.30;0.80;;;;;;;;;;5006611;28;20240;-30
2022/01/22 07:34:31;;;;;;;2.72;0.60;;;;;;;;;;4995712;28;20224;-31
2022/01/22 07:37:02;;;;;;;3.80;0.50;;;;;;;;;;4992593;28;20235;-30
2022/01/22 07:39:29;;;;;;;5.13;0.80;;;;;;;;;;4992309;28;20228;-30
2022/01/22 07:41:56;;;;;;;1.15;0.45;;;;;;;;;;4995910;28;20236;-29
2022/01/22 07:44:23;;;;;;;1.52;0.43;;;;;;;;;;4991301;28;20267;-30
2022/01/22 07:46:50;;;;;;;2.28;0.73;;;;;;;;;;4995734;28;20258;-31
2022/01/22 07:49:19;;;;;;;0.73;0.40;;;;;;;;;;4994000;28;20228;-30
2022/01/22 07:51:46;;;;;;;2.67;0.52;;;;;;;;;;4995698;28;20236;-30
2022/01/22 07:54:13;;;;;;;4.32;0.60;;;;;;;;;;4994448;28;20783;-31
2022/01/22 07:56:40;;;;;;;2.70;0.55;;;;;;;;;;4999203;28;20236;-34
2022/01/22 07:59:07;;;;;;;2.72;0.50;;;;;;;;;;5001962;28;20232;-30
2022/01/22 08:01:34;;;;;;;3.92;0.95;;;;;;;;;;5004200;28;20216;-32
2022/01/22 08:04:01;;;;;;;2.95;0.70;;;;;;;;;;5006373;28;20263;-35
2022/01/22 08:06:28;;;;;;;4.00;0.50;;;;;;;;;;5001646;28;20299;-34
2022/01/22 08:08:55;;;;;;;2.67;0.40;;;;;;;;;;5003985;28;20238;-37
2022/01/22 08:11:22;;;;;;;4.63;0.47;;;;;;;;;;5000550;28;20230;-32
2022/01/22 08:13:49;;;;;;;2.33;0.32;;;;;;;;;;5003378;28;20235;-32
2022/01/22 08:16:16;;;;;;;3.20;0.40;;;;;;;;;;5001696;28;20231;-31
2022/01/22 08:18:43;;;;;;;2.10;0.60;;;;;;;;;;4993490;28;20236;-30
2022/01/22 08:21:10;;;;;;;0.77;0.30;;;;;;;;;;5000590;28;20220;-34
2022/01/22 08:23:37;;;;;;;4.63;0.50;;;;;;;;;;5003312;28;20220;-33
2022/01/22 08:26:08;;;;;;;1.25;0.32;;;;;;;;;;5003431;28;20297;-34
2022/01/22 08:28:53;;;;;;;1.42;0.43;;;;;;;;;;5004955;28;20228;-37
2022/01/22 08:31:45;;;;;;;0.80;0.30;;;;;;;;;;5005305;28;20220;-33
2022/01/22 08:36:57;;;;;;;1.63;0.40;;;;;;;;;;4992598;28;20236;-32
2022/01/22 08:39:24;;;;;;;1.70;0.50;;;;;;;;;;5004573;28;20232;-33
2022/01/22 08:41:53;;;;;;;1.58;0.50;;;;;;;;;;5005187;28;20232;-34
2022/01/22 08:44:20;;;;;;;1.42;0.40;;;;;;;;;;4996763;28;20240;-34
2022/01/22 08:46:47;;;;;;;12.65;0.90;;;;;;;;;;4998323;28;20450;-31
2022/01/22 08:49:14;;;;;;;11.13;0.85;;;;;;;;;;4983398;28;20436;-32
2022/01/22 08:51:42;;;;;;;8.20;1.02;;;;;;;;;;4975498;28;20243;-32
2022/01/22 08:54:09;;;;;;;6.40;0.88;;;;;;;;;;4990853;28;20224;-29
2022/01/22 08:56:37;;;;;;;6.75;1.15;;;;;;;;;;4991858;28;20240;-29
2022/01/22 08:59:04;;;;;;;5.65;1.05;;;;;;;;;;4994140;28;20419;-34
2022/01/22 09:01:31;;;;;;;7.03;1.08;;;;;;;;;;4994098;28;20310;-29
2022/01/22 09:03:58;;;;;;;2.00;0.70;;;;;;;;;;4987126;28;20954;-30
2022/01/22 09:06:25;;;;;;;10.20;0.50;;;;;;;;;;4988829;28;21013;-29
2022/01/22 09:08:59;;;;;;;3.40;0.60;;;;;;;;;;4993932;28;20707;-31
2022/01/22 09:11:27;;;;;;;3.42;0.73;;;;;;;;;;4996057;28;20232;-30
2022/01/22 09:13:54;;;;;;;3.08;0.60;;;;;;;;;;4991640;28;20589;-32
2022/01/22 09:16:21;;;;;;;2.53;0.60;;;;;;;;;;4995959;28;20608;-31
2022/01/22 09:18:50;;;;;;;3.08;0.55;;;;;;;;;;4992700;28;20415;-31
2022/01/22 09:21:17;;;;;;;3.75;0.50;;;;;;;;;;4992742;28;20315;-32
2022/01/22 09:23:44;;;;;;;5.28;0.52;;;;;;;;;;4992996;28;20227;-29
2022/01/22 09:26:11;;;;;;;3.75;0.85;;;;;;;;;;4996786;28;20227;-30
2022/01/22 09:28:38;;;;;;;3.35;0.70;;;;;;;;;;4995466;28;20235;-30
2022/01/22 09:31:05;;;;;;;2.50;0.50;;;;;;;;;;4994789;28;20236;-30
2022/01/22 09:33:32;;;;;;;11.55;0.73;;;;;;;;;;4997421;28;20254;-29
2022/01/22 09:35:59;;;;;;;4.30;0.70;;;;;;;;;;4996619;28;20442;-31
2022/01/22 09:38:26;;;;;;;2.45;0.60;;;;;;;;;;4995808;28;20227;-31
2022/01/22 09:40:53;;;;;;;2.88;0.45;;;;;;;;;;4997012;28;20236;-34
2022/01/22 09:43:20;;;;;;;1.38;0.65;;;;;;;;;;4995750;28;20223;-31
2022/01/22 09:45:47;;;;;;;2.80;0.70;;;;;;;;;;4990310;28;20233;-33
2022/01/22 09:48:14;;;;;;;8.18;0.82;;;;;;;;;;4992828;28;20430;-31
2022/01/22 09:50:41;;;;;;;2.47;0.50;;;;;;;;;;4994541;28;20331;-33
2022/01/22 09:53:08;;;;;;;3.28;0.50;;;;;;;;;;5001080;28;20808;-34
2022/01/22 09:55:35;;;;;;;4.85;0.60;;;;;;;;;;4994418;28;20232;-29
2022/01/22 09:58:02;;;;;;;8.85;0.82;;;;;;;;;;4996738;28;20380;-29
2022/01/22 10:00:29;;;;;;;1.48;0.45;;;;;;;;;;4994677;28;20239;-32
2022/01/22 10:02:57;;;;;;;3.70;0.45;;;;;;;;;;4997056;28;20213;-31
2022/01/22 10:05:24;;;;;;;4.72;1.00;;;;;;;;;;4995775;28;20263;-36
2022/01/22 10:07:52;;;;;;;6.13;0.50;;;;;;;;;;4995012;28;20322;-30
2022/01/22 10:10:19;;;;;;;4.15;0.50;;;;;;;;;;4995335;28;20243;-32
2022/01/22 10:12:46;;;;;;;3.92;0.60;;;;;;;;;;4994906;28;20243;-31
2022/01/22 10:15:15;;;;;;;5.88;0.73;;;;;;;;;;4996732;28;20255;-32
2022/01/22 10:17:43;;;;;;;2.55;0.70;;;;;;;;;;5005260;28;20587;-30
2022/01/22 10:20:10;;;;;;;3.72;0.52;;;;;;;;;;4994801;28;20250;-31
2022/01/22 10:22:37;;;;;;;2.33;0.60;;;;;;;;;;4979506;28;20248;-31
2022/01/22 10:25:04;;;;;;;2.72;0.60;;;;;;;;;;4993962;28;20311;-30
2022/01/22 10:27:33;;;;;;;1.15;0.43;;;;;;;;;;4995349;28;20232;-30
2022/01/22 10:30:02;;;;;;;2.30;0.50;;;;;;;;;;4994728;28;20246;-31
2022/01/22 10:32:42;;;;;;;5.45;0.60;;;;;;;;;;4990254;28;20235;-30
2022/01/22 10:35:09;;;;;;;4.88;0.80;;;;;;;;;;4994434;28;20232;-33
2022/01/22 10:37:36;;;;;;;1.95;0.40;;;;;;;;;;4995575;28;20924;-31
2022/01/22 10:40:03;;;;;;;1.23;0.50;;;;;;;;;;4994393;28;20244;-31
2022/01/22 10:42:31;;;;;;;1.50;0.38;;;;;;;;;;4995228;28;20228;-32
2022/01/22 10:45:00;;;;;;;1.90;0.65;;;;;;;;;;4994499;28;20733;-35
2022/01/22 10:47:28;;;;;;;4.10;0.47;;;;;;;;;;4995307;28;20374;-32
2022/01/22 10:49:55;;;;;;;2.15;0.57;;;;;;;;;;4995368;28;20236;-32
2022/01/22 10:52:22;;;;;;;1.30;0.60;;;;;;;;;;4994517;28;20243;-31
2022/01/22 10:54:49;;;;;;;1.00;0.65;;;;;;;;;;4989577;28;20235;-30
2022/01/22 10:57:16;;;;;;;2.85;0.50;;;;;;;;;;4993271;28;20236;-30
2022/01/22 10:59:43;;;;;;;3.17;0.40;;;;;;;;;;4994156;28;20239;-30
2022/01/22 11:02:10;;;;;;;1.30;0.70;;;;;;;;;;4993979;28;20221;-30
2022/01/22 11:04:37;;;;;;;4.53;0.68;;;;;;;;;;4993501;28;20240;-32
2022/01/22 11:07:04;;;;;;;3.75;0.60;;;;;;;;;;4994674;28;20235;-37
2022/01/22 11:09:48;;;;;;;3.97;0.50;;;;;;;;;;4991414;28;20240;-38
2022/01/22 11:12:16;;;;;;;5.32;0.70;;;;;;;;;;4990077;28;20434;-34
2022/01/22 11:14:43;;;;;;;1.98;0.65;;;;;;;;;;4993732;28;20228;-36
2022/01/22 11:17:10;;;;;;;2.78;0.63;;;;;;;;;;4990914;28;20239;-32
2022/01/22 11:19:37;;;;;;;1.52;0.50;;;;;;;;;;4989650;28;20236;-39
2022/01/22 11:22:04;;;;;;;5.53;0.60;;;;;;;;;;4989382;28;20246;-33
2022/01/22 11:24:31;;;;;;;1.90;0.60;;;;;;;;;;4988278;28;20439;-35
2022/01/22 11:26:58;;;;;;;13.45;0.65;;;;;;;;;;4990598;28;20232;-31
2022/01/22 11:29:25;;;;;;;2.88;0.60;;;;;;;;;;4990921;28;21066;-38
2022/01/22 11:31:52;;;;;;;3.72;0.60;;;;;;;;;;4990732;28;20240;-30
2022/01/22 11:34:19;;;;;;;2.72;0.60;;;;;;;;;;4989778;28;20228;-31
2022/01/22 11:36:46;;;;;;;2.25;0.60;;;;;;;;;;4985202;28;20232;-33
2022/01/22 11:39:13;;;;;;;7.13;0.73;;;;;;;;;;4989157;28;20589;-31
2022/01/22 11:41:41;;;;;;;2.28;0.60;;;;;;;;;;4988002;28;20821;-33
2022/01/22 11:44:16;;;;;;;4.07;0.77;;;;;;;;;;4990139;28;20232;-30
2022/01/22 11:46:45;;;;;;;2.47;0.55;;;;;;;;;;4985185;28;20246;-32
2022/01/22 11:49:13;;;;;;;8.15;1.00;;;;;;;;;;4987839;28;20459;-31
2022/01/22 11:51:39;;;;;;;5.97;1.10;;;;;;;;;;4988181;28;20707;-32
2022/01/22 11:54:06;;;;;;;5.32;0.80;;;;;;;;;;4990751;28;20618;-37
2022/01/22 11:56:34;;;;;;;3.03;1.00;;;;;;;;;;4987782;28;20224;-31
2022/01/22 11:59:01;;;;;;;6.85;0.80;;;;;;;;;;4987308;28;20232;-31
2022/01/22 12:01:28;;;;;;;5.22;0.63;;;;;;;;;;4986735;28;20240;-34
2022/01/22 12:03:55;;;;;;;4.38;0.73;;;;;;;;;;4991099;28;20455;-34
2022/01/22 12:06:39;;;;;;;3.97;0.80;;;;;;;;;;4991995;28;20398;-32
2022/01/22 12:09:06;;;;;;;2.42;0.73;;;;;;;;;;4991132;28;20275;-32
2022/01/22 12:14:28;;;;;;;2.38;0.60;;;;;;;;;;4967776;28;20236;-37
2022/01/22 12:16:59;;;;;;;6.15;0.80;;;;;;;;;;4989634;28;20958;-33
2022/01/22 12:19:26;;;;;;;3.63;0.90;;;;;;;;;;4988557;28;20626;-32
2022/01/22 12:21:53;;;;;;;3.70;0.55;;;;;;;;;;4990848;28;20619;-31
2022/01/22 12:24:20;;;;;;;4.15;0.70;;;;;;;;;;4988761;28;20734;-38
2022/01/22 12:26:47;;;;;;;5.40;0.88;;;;;;;;;;4994052;28;20610;-32
2022/01/22 12:29:14;;;;;;;5.57;0.90;;;;;;;;;;4990715;28;20424;-36
2022/01/22 12:31:41;;;;;;;2.80;0.70;;;;;;;;;;4989212;28;20419;-32
2022/01/22 12:34:08;;;;;;;3.45;0.77;;;;;;;;;;4989258;28;20474;-32
2022/01/22 12:36:36;;;;;;;2.88;0.77;;;;;;;;;;4986263;28;20247;-32
2022/01/22 12:39:05;;;;;;;4.32;0.80;;;;;;;;;;4991946;28;20419;-31
2022/01/22 12:43:59;;;;;;;3.83;0.77;;;;;;;;;;4992180;28;20291;-34
2022/01/22 12:46:46;;;;;;;2.35;0.85;;;;;;;;;;5006242;28;20243;-32
2022/01/22 12:49:13;;;;;;;4.63;0.70;;;;;;;;;;5012201;28;20240;-30
2022/01/22 12:51:40;;;;;;;7.80;1.08;;;;;;;;;;5012386;28;20223;-33
2022/01/22 12:54:07;;;;;;;5.35;1.02;;;;;;;;;;5011289;28;20231;-35
2022/01/22 12:56:54;;;;;;;2.97;0.73;;;;;;;;;;4973057;28;20228;-30
2022/01/22 12:59:21;;;;;;;3.78;0.80;;;;;;;;;;4972118;28;20243;-34
2022/01/22 13:01:51;;;;;;;5.55;0.93;;;;;;;;;;5000983;28;20231;-32
2022/01/22 13:04:19;;;;;;;6.20;0.90;;;;;;;;;;5011937;28;20238;-32
2022/01/22 13:06:49;;;;;;;3.05;0.60;;;;;;;;;;4997968;28;20236;-31
2022/01/22 13:09:16;;;;;;;4.30;0.80;;;;;;;;;;4992546;28;20688;-31
2022/01/22 13:11:47;;;;;;;2.50;0.60;;;;;;;;;;4992519;28;20235;-33
2022/01/22 13:14:14;;;;;;;4.03;0.88;;;;;;;;;;4992237;28;20232;-30
2022/01/22 13:16:41;;;;;;;1.50;0.70;;;;;;;;;;5000457;28;20236;-31
2022/01/22 13:19:08;;;;;;;1.42;0.57;;;;;;;;;;4992170;28;20283;-31
2022/01/22 13:21:35;;;;;;;2.75;0.70;;;;;;;;;;4992517;28;20227;-31
2022/01/22 13:24:02;;;;;;;1.58;0.60;;;;;;;;;;4992501;28;20318;-30
2022/01/22 13:26:29;;;;;;;4.18;0.73;;;;;;;;;;4992405;28;20240;-31
2022/01/22 13:28:56;;;;;;;2.55;0.73;;;;;;;;;;4991685;28;20236;-29
2022/01/22 13:31:23;;;;;;;3.67;1.02;;;;;;;;;;5002926;28;20231;-33
2022/01/22 13:34:10;;;;;;;1.30;0.55;;;;;;;;;;5011802;28;21046;-31
2022/01/22 13:36:53;;;;;;;1.60;0.50;;;;;;;;;;5000540;28;20743;-35
2022/01/22 13:39:59;;;;;;;1.70;0.82;;;;;;;;;;4991315;28;20236;-32
2022/01/22 13:45:24;;;;;;;2.13;0.73;;;;;;;;;;4991661;28;20244;-34
2022/01/22 13:47:51;;;;;;;1.67;0.60;;;;;;;;;;5011471;28;20231;-32
2022/01/22 13:50:38;;;;;;;1.80;0.60;;;;;;;;;;4986988;28;21063;-30
2022/01/22 13:53:05;;;;;;;1.85;0.70;;;;;;;;;;4972522;28;20233;-32
2022/01/22 13:55:32;;;;;;;2.45;0.75;;;;;;;;;;4972356;28;20252;-32
2022/01/22 13:57:59;;;;;;;3.33;0.80;;;;;;;;;;4971828;28;20608;-31
2022/01/22 14:00:26;;;;;;;3.53;0.57;;;;;;;;;;4975015;28;20270;-33
2022/01/22 14:03:28;;;;;;;2.75;0.80;;;;;;;;;;4991946;28;20228;-32
2022/01/22 14:05:55;;;;;;;3.00;0.80;;;;;;;;;;4991715;28;20726;-30
2022/01/22 14:08:28;;;;;;;1.50;0.70;;;;;;;;;;4991278;28;20341;-34
2022/01/22 14:10:55;;;;;;;1.42;0.60;;;;;;;;;;4993167;28;20703;-29
2022/01/22 14:13:22;;;;;;;2.25;0.82;;;;;;;;;;4994763;28;20703;-32
2022/01/22 14:15:49;;;;;;;1.65;0.60;;;;;;;;;;5001528;28;20236;-33
2022/01/22 14:18:19;;;;;;;1.63;0.93;;;;;;;;;;5014733;28;20239;-32
2022/01/22 14:20:46;;;;;;;2.17;0.65;;;;;;;;;;5014764;28;21135;-32
2022/01/22 14:23:13;;;;;;;2.70;0.63;;;;;;;;;;5003659;28;20989;-31
2022/01/22 14:25:40;;;;;;;2.55;0.90;;;;;;;;;;4994544;28;20689;-33
2022/01/22 14:28:07;;;;;;;2.40;0.80;;;;;;;;;;4994194;28;20981;-29
2022/01/22 14:30:34;;;;;;;1.88;0.88;;;;;;;;;;4994404;28;20420;-30
2022/01/22 14:33:01;;;;;;;2.63;0.80;;;;;;;;;;4995420;28;20675;-32
2022/01/22 14:35:28;;;;;;;2.88;1.08;;;;;;;;;;4994185;28;20256;-30
2022/01/22 14:37:57;;;;;;;4.47;0.88;;;;;;;;;;4988326;28;20232;-34
2022/01/22 14:45:56;;;;;;;4.03;0.68;;;;;;;;;;4994244;28;20246;-35
2022/01/22 14:48:23;;;;;;;5.68;0.73;;;;;;;;;;4994985;28;20986;-32
2022/01/22 14:50:50;;;;;;;4.13;0.85;;;;;;;;;;4990347;28;20244;-37
2022/01/22 14:53:17;;;;;;;3.78;0.90;;;;;;;;;;4987164;28;20247;-39
2022/01/22 14:55:44;;;;;;;4.18;0.85;;;;;;;;;;4993915;28;20236;-38
2022/01/22 14:58:11;;;;;;;5.25;0.85;;;;;;;;;;4995391;28;20228;-35
2022/01/22 15:00:38;;;;;;;6.72;0.88;;;;;;;;;;4995910;28;20236;-34
2022/01/22 15:03:05;;;;;;;3.75;0.65;;;;;;;;;;4996429;28;20312;-32
2022/01/22 15:05:32;;;;;;;6.53;0.90;;;;;;;;;;4995721;28;20251;-38
2022/01/22 15:07:59;;;;;;;10.13;1.08;;;;;;;;;;4994125;28;20418;-40
2022/01/22 15:10:31;;;;;;;5.72;0.70;;;;;;;;;;4996107;28;20243;-37
2022/01/22 15:12:58;;;;;;;4.60;0.95;;;;;;;;;;4995915;28;20232;-36
2022/01/22 15:15:35;;;;;;;1.60;0.60;;;;;;;;;;5000403;28;20326;-41
2022/01/22 15:18:09;;;;;;;3.42;0.85;;;;;;;;;;5008293;28;20232;-38
2022/01/22 15:20:36;;;;;;;3.42;1.00;;;;;;;;;;4995559;28;20231;-36
2022/01/22 15:23:03;;;;;;;3.10;0.90;;;;;;;;;;4995183;28;20228;-36
2022/01/22 15:25:30;;;;;;;3.33;1.00;;;;;;;;;;4995477;28;20339;-35
2022/01/22 15:27:57;;;;;;;4.70;1.13;;;;;;;;;;4995897;28;20228;-35
2022/01/22 15:30:30;;;;;;;3.22;0.77;;;;;;;;;;4997774;28;20220;-39
2022/01/22 15:33:17;;;;;;;4.53;0.80;;;;;;;;;;5016075;28;20226;-33
2022/01/22 15:35:44;;;;;;;3.15;0.90;;;;;;;;;;5015632;28;20354;-36
2022/01/22 15:38:12;;;;;;;1.77;0.70;;;;;;;;;;5015740;28;20226;-35
2022/01/22 15:40:39;;;;;;;4.95;0.93;;;;;;;;;;5001722;28;20240;-33
2022/01/22 15:43:07;;;;;;;5.97;0.93;;;;;;;;;;4999438;28;20235;-40
2022/01/22 15:45:35;;;;;;;7.38;0.90;;;;;;;;;;5003235;28;20442;-35
2022/01/22 15:48:03;;;;;;;3.83;0.85;;;;;;;;;;5012982;28;20243;-37
2022/01/22 15:50:30;;;;;;;6.03;0.90;;;;;;;;;;5007620;28;20244;-33
2022/01/22 15:53:09;;;;;;;8.30;0.80;;;;;;;;;;4991834;28;20239;-32
2022/01/22 15:55:36;;;;;;;2.53;0.73;;;;;;;;;;4993818;28;20231;-35
2022/01/22 15:58:03;;;;;;;5.03;0.95;;;;;;;;;;4994250;28;20315;-34
2022/01/22 16:00:34;;;;;;;3.80;1.20;;;;;;;;;;4997522;28;20236;-33
2022/01/22 16:03:04;;;;;;;2.83;0.60;;;;;;;;;;4996460;28;20235;-32
2022/01/22 16:05:32;;;;;;;2.65;0.77;;;;;;;;;;4992870;28;20318;-31
2022/01/22 16:07:59;;;;;;;6.38;1.20;;;;;;;;;;4993807;28;20279;-32
2022/01/22 16:10:47;;;;;;;4.47;0.93;;;;;;;;;;4993423;28;20625;-31
2022/01/22 16:13:16;;;;;;;6.57;0.85;;;;;;;;;;4992149;28;20232;-31
2022/01/22 16:15:43;;;;;;;6.35;0.90;;;;;;;;;;4998054;28;20227;-31
2022/01/22 16:18:10;;;;;;;4.30;1.00;;;;;;;;;;5012844;28;20966;-31
2022/01/22 16:20:37;;;;;;;3.03;0.85;;;;;;;;;;5012883;28;21018;-34
2022/01/22 16:23:04;;;;;;;5.28;1.08;;;;;;;;;;5012957;28;20234;-34
2022/01/22 16:25:31;;;;;;;3.88;0.85;;;;;;;;;;4972374;28;20244;-33
2022/01/22 16:27:59;;;;;;;4.63;1.08;;;;;;;;;;4973436;28;20229;-36
2022/01/22 16:30:26;;;;;;;3.70;0.90;;;;;;;;;;4976695;28;20282;-32